Time;durP1;ratioP1;P1;durP2;ratioP2;P2;SDS_P1;SDS_P2;PMS_P1;PMS_P2;Temp;Humidity;BMP_temperature;BMP_pressure;BME280_temperature;BME280_humidity;BME280_pressure;Samples;Min_cycle;Max_cycle;Signal;HPM_P1;HPM_P2
2022/06/19 00:01:55;;;;;;;4.22;3.17;;;;;;;23.56;56.89;97901.66;4122371;28;20207;-61
2022/06/19 00:03:57;;;;;;;11.73;3.67;;;;;;;23.61;57.08;97900.59;4133557;28;20230;-62
2022/06/19 00:05:59;;;;;;;7.90;3.67;;;;;;;23.56;56.90;97898.06;4123074;28;20656;-62
2022/06/19 00:08:01;;;;;;;10.30;3.55;;;;;;;23.56;57.33;97898.88;4123575;28;20213;-62
2022/06/19 00:10:05;;;;;;;5.97;3.03;;;;;;;23.57;57.46;97891.31;4105542;28;20892;-63
2022/06/19 00:12:07;;;;;;;4.72;3.60;;;;;;;23.56;57.70;97895.28;4121586;28;20213;-61
2022/06/19 00:14:09;;;;;;;18.20;4.97;;;;;;;23.48;57.78;97897.00;4135223;28;20706;-62
2022/06/19 00:16:11;;;;;;;9.38;3.08;;;;;;;23.43;57.64;97908.41;4120727;28;20247;-62
2022/06/19 00:18:13;;;;;;;9.10;3.53;;;;;;;23.41;58.09;97893.16;4102355;28;20206;-62
2022/06/19 00:20:15;;;;;;;7.70;3.95;;;;;;;23.35;58.11;97894.53;4119782;28;20264;-62
2022/06/19 00:22:17;;;;;;;11.23;4.32;;;;;;;23.28;58.74;97888.72;4133154;28;20217;-62
2022/06/19 00:24:18;;;;;;;8.95;4.10;;;;;;;23.05;58.87;97890.28;4121706;28;20229;-62
2022/06/19 00:26:20;;;;;;;5.57;3.45;;;;;;;22.95;59.04;97885.13;4121350;28;20672;-62
2022/06/19 00:28:22;;;;;;;9.48;3.33;;;;;;;22.84;59.27;97878.38;4135991;28;20237;-62
2022/06/19 00:30:24;;;;;;;9.90;5.00;;;;;;;22.94;58.61;97883.50;4134194;28;20205;-62
2022/06/19 00:32:27;;;;;;;10.95;5.20;;;;;;;23.01;59.03;97884.59;4121405;28;20216;-62
2022/06/19 00:34:29;;;;;;;8.90;3.47;;;;;;;23.01;58.80;97886.53;4119226;28;20502;-62
2022/06/19 00:36:31;;;;;;;9.30;4.10;;;;;;;22.99;58.53;97886.09;4121561;28;20333;-62
2022/06/19 00:38:33;;;;;;;10.82;3.95;;;;;;;23.03;58.45;97881.44;4133017;28;20212;-62
2022/06/19 00:40:35;;;;;;;6.63;3.05;;;;;;;22.90;58.80;97877.81;4132620;28;20227;-62
2022/06/19 00:42:36;;;;;;;9.35;3.63;;;;;;;22.94;58.46;97873.16;4133559;28;20201;-62
2022/06/19 00:44:39;;;;;;;6.53;3.47;;;;;;;22.68;59.36;97869.00;4122562;28;20233;-63
2022/06/19 00:46:50;;;;;;;5.80;2.85;;;;;;;22.73;59.11;97868.81;4118079;28;20268;-62
2022/06/19 00:48:52;;;;;;;5.20;3.40;;;;;;;22.56;59.74;97871.78;4119282;28;20239;-62
2022/06/19 00:50:54;;;;;;;6.63;3.38;;;;;;;22.59;59.50;97876.66;4133948;28;20738;-63
2022/06/19 00:52:57;;;;;;;4.07;3.20;;;;;;;22.49;59.55;97865.91;4132886;28;20209;-63
2022/06/19 00:55:03;;;;;;;7.25;3.90;;;;;;;22.47;59.76;97868.25;4135938;28;20229;-63
2022/06/19 00:57:05;;;;;;;6.95;3.08;;;;;;;22.36;59.33;97867.81;4134201;28;20194;-62
2022/06/19 00:59:08;;;;;;;7.72;2.53;;;;;;;22.38;59.30;97861.91;4117580;28;20209;-63
2022/06/19 01:01:17;;;;;;;7.60;4.03;;;;;;;22.25;59.36;97866.59;4112679;28;20269;-63
2022/06/19 01:03:25;;;;;;;6.20;2.80;;;;;;;22.39;58.93;97860.75;4124191;28;20216;-62
2022/06/19 01:05:28;;;;;;;4.75;2.90;;;;;;;22.35;58.75;97865.38;4118399;28;20232;-63
2022/06/19 01:07:29;;;;;;;8.77;4.03;;;;;;;22.44;58.61;97860.56;4104299;28;20229;-62
2022/06/19 01:09:31;;;;;;;10.13;2.45;;;;;;;22.53;58.63;97862.13;4120746;28;20218;-63
2022/06/19 01:11:37;;;;;;;8.35;2.83;;;;;;;22.63;58.63;97863.66;4133009;28;20239;-62
2022/06/19 01:13:39;;;;;;;7.05;3.22;;;;;;;22.61;58.22;97854.81;4120930;28;20252;-63
2022/06/19 01:15:41;;;;;;;4.05;2.55;;;;;;;22.61;58.42;97864.00;4118774;28;20228;-62
2022/06/19 01:17:45;;;;;;;5.97;3.78;;;;;;;22.72;58.21;97864.38;4119681;28;20711;-63
2022/06/19 01:19:46;;;;;;;12.88;3.55;;;;;;;22.68;58.88;97857.84;4132111;28;20613;-61
2022/06/19 01:22:03;;;;;;;10.15;3.30;;;;;;;22.68;59.23;97857.84;4118538;28;20260;-62
2022/06/19 01:24:11;;;;;;;13.32;4.53;;;;;;;22.68;59.19;97855.88;4121166;28;20236;-61
2022/06/19 01:26:14;;;;;;;5.22;2.95;;;;;;;22.65;59.11;97852.97;4138022;28;20610;-63
2022/06/19 01:28:45;;;;;;;4.68;3.63;;;;;;;22.65;58.81;97852.97;4138699;28;20699;-62
2022/06/19 01:30:49;;;;;;;10.40;2.97;;;;;;;22.66;59.01;97849.03;4124544;28;20213;-63
2022/06/19 01:32:51;;;;;;;5.55;2.65;;;;;;;22.57;58.61;97857.47;4116519;28;20284;-63
2022/06/19 01:34:53;;;;;;;8.65;3.20;;;;;;;22.55;58.81;97851.44;4122202;28;20579;-62
2022/06/19 01:37:01;;;;;;;4.47;2.90;;;;;;;22.55;59.06;97856.19;4136568;28;20205;-62
2022/06/19 01:39:03;;;;;;;11.30;3.78;;;;;;;22.54;58.99;97860.13;4137331;28;20232;-63
2022/06/19 01:41:10;;;;;;;11.38;3.58;;;;;;;22.40;59.36;97854.00;4123813;28;20229;-62
2022/06/19 01:43:13;;;;;;;8.57;3.88;;;;;;;22.44;58.92;97852.22;4121817;28;20796;-63
2022/06/19 01:45:15;;;;;;;9.15;2.95;;;;;;;22.37;58.89;97846.34;4122462;28;20234;-63
2022/06/19 01:47:17;;;;;;;9.63;2.53;;;;;;;22.33;58.97;97850.97;4137426;28;20209;-62
2022/06/19 01:49:19;;;;;;;4.60;2.90;;;;;;;22.35;59.15;97855.03;4119991;28;20304;-63
2022/06/19 01:51:21;;;;;;;14.90;3.47;;;;;;;22.42;59.18;97848.91;4136689;28;20255;-62
2022/06/19 01:53:26;;;;;;;12.23;4.40;;;;;;;22.32;59.18;97841.75;4137514;28;20679;-62
2022/06/19 01:55:29;;;;;;;9.82;3.17;;;;;;;22.43;59.43;97837.44;4123786;28;20225;-62
2022/06/19 01:57:32;;;;;;;10.30;3.80;;;;;;;22.22;59.57;97833.00;4137172;28;20255;-62
2022/06/19 01:59:34;;;;;;;10.35;3.13;;;;;;;22.08;59.58;97826.91;4123972;28;20209;-62
2022/06/19 02:01:37;;;;;;;6.07;3.17;;;;;;;22.17;59.60;97836.81;4123737;28;20652;-62
2022/06/19 02:03:43;;;;;;;6.75;2.50;;;;;;;22.21;59.48;97835.00;4140820;28;20297;-61
2022/06/19 02:05:48;;;;;;;4.97;2.80;;;;;;;22.18;59.72;97841.25;4126596;28;20232;-63
2022/06/19 02:07:50;;;;;;;15.85;3.13;;;;;;;22.17;59.63;97847.19;4136007;28;20223;-63
2022/06/19 02:09:52;;;;;;;5.10;3.40;;;;;;;22.07;59.81;97842.84;4136230;28;20327;-63
2022/06/19 02:11:55;;;;;;;13.85;3.13;;;;;;;21.89;60.52;97854.44;4121525;28;20206;-62
2022/06/19 02:13:58;;;;;;;7.30;3.55;;;;;;;21.97;59.98;97842.44;4123565;28;20225;-63
2022/06/19 02:16:04;;;;;;;5.28;2.83;;;;;;;21.85;60.08;97845.13;4124801;28;20201;-62
2022/06/19 02:18:08;;;;;;;17.10;4.25;;;;;;;21.78;60.05;97839.28;4133517;28;20205;-63
2022/06/19 02:20:11;;;;;;;10.00;3.38;;;;;;;21.78;60.01;97839.28;4119905;28;22109;-63
2022/06/19 02:22:15;;;;;;;14.45;2.97;;;;;;;21.84;59.40;97838.72;4122374;28;20292;-62
2022/06/19 02:24:19;;;;;;;15.00;2.78;;;;;;;21.77;59.32;97838.47;4120664;28;20307;-62
2022/06/19 02:26:21;;;;;;;6.35;3.20;;;;;;;21.87;59.18;97842.81;4120466;28;21906;-63
2022/06/19 02:28:23;;;;;;;9.15;4.68;;;;;;;21.91;58.73;97833.44;4104016;28;20210;-63
2022/06/19 02:30:25;;;;;;;4.65;3.28;;;;;;;21.98;58.65;97836.50;4135019;28;20215;-62
2022/06/19 02:32:46;;;;;;;11.90;4.45;;;;;;;21.96;59.02;97837.97;4139476;28;20280;-61
2022/06/19 02:34:50;;;;;;;10.63;3.35;;;;;;;21.95;59.03;97833.56;4120601;28;20221;-63
2022/06/19 02:36:55;;;;;;;7.60;3.08;;;;;;;22.02;58.66;97833.84;4116075;28;20202;-63
2022/06/19 02:39:00;;;;;;;8.18;3.28;;;;;;;22.04;58.88;97834.34;4121357;28;20201;-62
2022/06/19 02:41:10;;;;;;;6.30;4.15;;;;;;;22.06;59.09;97835.63;4107350;28;20266;-63
2022/06/19 02:43:23;;;;;;;11.48;3.40;;;;;;;22.05;59.06;97827.59;4129848;28;20226;-62
2022/06/19 02:45:29;;;;;;;8.18;3.63;;;;;;;22.05;59.21;97836.75;4136779;28;20298;-62
2022/06/19 02:47:33;;;;;;;5.93;2.85;;;;;;;22.01;59.09;97827.47;4135990;28;20237;-63
2022/06/19 02:49:36;;;;;;;4.38;2.70;;;;;;;22.04;59.52;97820.41;4119478;28;20228;-63
2022/06/19 02:51:38;;;;;;;8.90;3.15;;;;;;;21.82;59.55;97817.94;4121555;28;20202;-62
2022/06/19 02:53:39;;;;;;;9.27;3.03;;;;;;;21.64;59.74;97819.22;4134878;28;20640;-62
2022/06/19 02:55:41;;;;;;;10.38;3.75;;;;;;;21.81;58.89;97816.31;4121552;28;20213;-62
2022/06/19 02:57:43;;;;;;;14.07;3.95;;;;;;;22.41;56.22;97813.81;4119346;28;20676;-62
2022/06/19 02:59:45;;;;;;;8.25;3.47;;;;;;;23.06;54.16;97819.34;4122289;28;20216;-63
2022/06/19 03:01:46;;;;;;;8.75;3.72;;;;;;;23.20;54.03;97808.66;4135907;28;20211;-63
2022/06/19 03:03:48;;;;;;;13.65;3.95;;;;;;;23.56;52.46;97817.03;4135577;28;20208;-63
2022/06/19 03:05:50;;;;;;;8.82;3.80;;;;;;;23.61;52.46;97808.41;4122237;28;20265;-62
2022/06/19 03:07:52;;;;;;;9.55;4.40;;;;;;;23.57;52.76;97808.28;4121195;28;20264;-63
2022/06/19 03:09:54;;;;;;;8.18;4.03;;;;;;;23.47;53.39;97813.53;4136545;28;20788;-62
2022/06/19 03:11:55;;;;;;;6.63;3.13;;;;;;;23.30;54.40;97816.59;4139040;28;20212;-62
2022/06/19 03:13:57;;;;;;;8.88;2.97;;;;;;;23.12;54.92;97826.31;4136469;28;20715;-63
2022/06/19 03:16:04;;;;;;;10.05;3.72;;;;;;;22.98;55.72;97828.63;4135446;28;20201;-62
2022/06/19 03:18:06;;;;;;;11.82;3.30;;;;;;;22.79;56.08;97820.81;4119362;28;20296;-62
2022/06/19 03:20:12;;;;;;;4.88;3.08;;;;;;;22.69;56.30;97815.66;4120330;28;20216;-62
2022/06/19 03:22:14;;;;;;;6.90;3.47;;;;;;;22.61;56.49;97812.97;4116491;28;20206;-63
2022/06/19 03:24:16;;;;;;;17.48;3.17;;;;;;;22.36;56.67;97816.81;4123207;28;20256;-62
2022/06/19 03:26:17;;;;;;;9.68;4.03;;;;;;;21.92;57.51;97806.41;4136248;28;20231;-62
2022/06/19 03:28:19;;;;;;;9.95;3.88;;;;;;;21.82;57.94;97802.06;4137163;28;20239;-63
2022/06/19 03:30:21;;;;;;;12.88;4.03;;;;;;;21.73;57.86;97831.13;4120951;28;20332;-62
2022/06/19 03:32:23;;;;;;;9.88;3.83;;;;;;;21.73;58.34;97817.19;4136840;28;20682;-62
2022/06/19 03:34:25;;;;;;;5.50;3.15;;;;;;;21.84;57.87;97819.22;4136950;28;20255;-62
2022/06/19 03:36:27;;;;;;;17.40;4.60;;;;;;;21.91;57.72;97810.34;4135330;28;20770;-62
2022/06/19 03:38:28;;;;;;;17.58;3.72;;;;;;;21.95;57.92;97808.50;4135686;28;20216;-62
2022/06/19 03:40:30;;;;;;;11.75;3.47;;;;;;;21.95;58.37;97806.53;4120333;28;20271;-62
2022/06/19 03:42:32;;;;;;;10.20;3.15;;;;;;;22.00;58.22;97802.72;4135544;28;21040;-62
2022/06/19 03:44:34;;;;;;;9.75;3.08;;;;;;;21.92;58.22;97806.41;4130810;28;20730;-63
2022/06/19 03:46:36;;;;;;;11.95;3.30;;;;;;;21.86;58.50;97803.00;4121448;28;21026;-62
2022/06/19 03:48:42;;;;;;;5.30;3.38;;;;;;;21.98;58.05;97814.19;4115311;28;20210;-62
2022/06/19 03:50:44;;;;;;;5.63;3.17;;;;;;;21.91;58.48;97815.91;4121881;28;20301;-62
2022/06/19 03:52:46;;;;;;;9.77;3.22;;;;;;;21.95;58.19;97822.41;4127630;28;20213;-62
2022/06/19 03:54:48;;;;;;;8.90;3.30;;;;;;;21.94;58.45;97816.06;4136859;28;22171;-63
2022/06/19 03:56:50;;;;;;;13.27;3.33;;;;;;;22.02;58.17;97822.69;4119028;28;20691;-62
2022/06/19 03:58:52;;;;;;;12.65;3.60;;;;;;;22.05;58.49;97830.38;4126645;28;20581;-62
2022/06/19 04:00:53;;;;;;;5.78;3.15;;;;;;;22.04;58.13;97831.56;4139631;28;20209;-63
2022/06/19 04:02:55;;;;;;;4.20;2.83;;;;;;;22.06;58.47;97829.22;4120951;28;20233;-63
2022/06/19 04:04:57;;;;;;;7.85;3.42;;;;;;;22.05;58.58;97827.59;4122629;28;20221;-63
2022/06/19 04:06:59;;;;;;;8.63;3.05;;;;;;;22.07;58.65;97830.84;4135296;28;20675;-63
2022/06/19 04:09:02;;;;;;;7.82;3.35;;;;;;;22.03;59.13;97830.72;4116074;28;20210;-63
2022/06/19 04:11:05;;;;;;;11.05;3.20;;;;;;;22.09;58.61;97837.72;4132274;28;20217;-62
2022/06/19 04:13:07;;;;;;;7.43;2.72;;;;;;;22.21;58.50;97834.16;4133225;28;20724;-62
2022/06/19 04:15:10;;;;;;;8.73;2.60;;;;;;;22.19;58.74;97833.72;4134191;28;20227;-63
2022/06/19 04:17:12;;;;;;;7.28;3.33;;;;;;;22.20;58.79;97826.97;4107912;28;20222;-63
2022/06/19 04:19:13;;;;;;;14.20;3.20;;;;;;;22.25;58.57;97827.56;4118089;28;20202;-62
2022/06/19 04:21:18;;;;;;;12.35;3.35;;;;;;;22.36;58.64;97819.59;4118850;28;20228;-62
2022/06/19 04:23:19;;;;;;;7.95;3.50;;;;;;;22.30;59.19;97823.78;4134859;28;20270;-63
2022/06/19 04:25:21;;;;;;;14.13;4.60;;;;;;;22.31;59.03;97814.25;4121930;28;20279;-62
2022/06/19 04:27:23;;;;;;;9.68;5.57;;;;;;;22.39;58.97;97827.28;4115873;28;20249;-62
2022/06/19 04:29:25;;;;;;;4.88;3.00;;;;;;;22.51;58.18;97821.78;4119883;28;20273;-63
2022/06/19 04:31:27;;;;;;;8.90;4.68;;;;;;;22.55;58.83;97825.50;4110551;28;20253;-62
2022/06/19 04:33:30;;;;;;;13.27;4.38;;;;;;;22.69;58.52;97834.38;4136099;28;20250;-62
2022/06/19 04:35:32;;;;;;;8.10;3.97;;;;;;;22.88;58.24;97835.47;4119975;28;20249;-63
2022/06/19 04:37:33;;;;;;;6.55;5.10;;;;;;;22.94;57.97;97836.06;4103522;28;20203;-62
2022/06/19 04:39:35;;;;;;;8.65;4.18;;;;;;;23.06;58.22;97833.28;4121558;28;20209;-62
2022/06/19 04:41:39;;;;;;;7.55;4.75;;;;;;;23.08;58.34;97840.16;4115752;28;20736;-62
2022/06/19 04:43:41;;;;;;;14.20;4.78;;;;;;;23.16;57.78;97841.25;4134902;28;20201;-62
2022/06/19 04:45:43;;;;;;;12.40;6.07;;;;;;;23.48;57.25;97831.94;4104806;28;22203;-62
2022/06/19 04:47:45;;;;;;;14.77;5.63;;;;;;;23.58;57.40;97820.28;4125460;28;20743;-61
2022/06/19 04:49:49;;;;;;;15.98;5.40;;;;;;;23.63;56.89;97829.25;4119410;28;20240;-61
2022/06/19 04:51:51;;;;;;;5.95;5.45;;;;;;;23.68;56.95;97817.84;4136431;28;20205;-61
2022/06/19 04:53:55;;;;;;;17.25;4.90;;;;;;;23.83;56.91;97821.88;4120752;28;20645;-62
2022/06/19 04:55:57;;;;;;;13.13;5.43;;;;;;;23.92;56.65;97822.59;4134808;28;20211;-62
2022/06/19 04:58:00;;;;;;;6.38;4.90;;;;;;;23.98;56.66;97815.59;4135018;28;20217;-62
2022/06/19 05:00:04;;;;;;;6.65;5.95;;;;;;;24.22;55.74;97811.56;4137853;28;20279;-62
2022/06/19 05:02:05;;;;;;;7.53;5.57;;;;;;;24.29;55.73;97803.38;4138719;28;20205;-62
2022/06/19 05:04:10;;;;;;;15.27;5.78;;;;;;;24.45;55.39;97811.81;4136631;28;20229;-62
2022/06/19 05:06:12;;;;;;;6.80;5.90;;;;;;;24.49;55.28;97824.72;4121388;28;20256;-62
2022/06/19 05:08:14;;;;;;;8.40;5.07;;;;;;;24.55;55.83;97820.50;4125523;28;20228;-62
2022/06/19 05:10:16;;;;;;;14.35;6.10;;;;;;;24.64;55.19;97821.16;4084805;28;1134614;-62
2022/06/19 05:12:18;;;;;;;9.02;5.95;;;;;;;24.72;55.14;97825.78;4115384;28;20214;-61
2022/06/19 05:14:19;;;;;;;7.90;6.07;;;;;;;24.87;54.49;97830.59;4124377;28;20324;-61
2022/06/19 05:16:22;;;;;;;7.45;5.80;;;;;;;24.95;54.35;97826.81;4139226;28;20263;-61
2022/06/19 05:18:24;;;;;;;8.07;5.20;;;;;;;25.01;54.46;97836.59;4138357;28;20209;-61
2022/06/19 05:20:25;;;;;;;6.60;4.78;;;;;;;25.07;54.03;97829.50;4138280;28;20686;-61
2022/06/19 05:22:27;;;;;;;11.70;5.80;;;;;;;25.12;54.07;97837.66;4139139;28;20212;-61
2022/06/19 05:24:29;;;;;;;7.93;5.35;;;;;;;25.19;53.84;97839.84;4125472;28;20794;-61
2022/06/19 05:26:32;;;;;;;9.68;5.75;;;;;;;25.32;53.17;97841.41;4140615;28;20205;-62
2022/06/19 05:28:34;;;;;;;6.05;5.45;;;;;;;25.40;52.61;97840.41;4107061;28;20727;-62
2022/06/19 05:30:36;;;;;;;6.10;5.35;;;;;;;25.49;53.15;97841.84;4129368;28;20214;-62
2022/06/19 05:32:38;;;;;;;11.95;4.30;;;;;;;25.62;52.22;97834.97;4132574;28;20201;-61
2022/06/19 05:34:39;;;;;;;10.23;4.93;;;;;;;25.67;52.09;97826.25;4140360;28;20708;-61
2022/06/19 05:36:48;;;;;;;13.48;4.93;;;;;;;25.79;51.83;97834.53;4124244;28;20659;-61
2022/06/19 05:38:50;;;;;;;8.80;4.78;;;;;;;25.83;52.02;97829.84;4143153;28;20327;-60
2022/06/19 05:40:53;;;;;;;5.18;4.30;;;;;;;25.92;51.30;97827.66;4122085;28;20217;-61
2022/06/19 05:42:56;;;;;;;6.68;4.93;;;;;;;26.00;51.19;97829.44;4110350;28;20265;-61
2022/06/19 05:44:58;;;;;;;7.97;5.25;;;;;;;26.05;51.56;97823.56;4128351;28;20229;-62
2022/06/19 05:46:59;;;;;;;11.15;4.47;;;;;;;26.15;51.18;97828.59;4141724;28;20652;-61
2022/06/19 05:49:01;;;;;;;12.43;5.15;;;;;;;26.27;50.84;97833.25;4127739;28;20277;-62
2022/06/19 05:51:06;;;;;;;9.13;5.38;;;;;;;26.31;50.99;97823.72;4120090;28;20229;-61
2022/06/19 05:53:08;;;;;;;21.10;5.28;;;;;;;26.42;50.03;97813.53;4104151;28;20214;-61
2022/06/19 05:55:12;;;;;;;6.90;4.20;;;;;;;26.50;49.69;97814.47;4126979;28;20267;-61
2022/06/19 05:57:14;;;;;;;9.30;4.35;;;;;;;26.56;49.37;97819.47;4136186;28;20210;-61
2022/06/19 05:59:16;;;;;;;7.13;5.38;;;;;;;26.63;48.88;97814.00;4123827;28;20218;-61
2022/06/19 06:01:18;;;;;;;14.25;5.20;;;;;;;26.76;48.40;97821.06;4121669;28;20205;-61
2022/06/19 06:03:22;;;;;;;4.32;4.03;;;;;;;26.81;48.14;97829.19;4140107;28;20266;-62
2022/06/19 06:05:23;;;;;;;7.78;4.47;;;;;;;26.91;47.75;97817.34;4140361;28;20220;-62
2022/06/19 06:07:25;;;;;;;5.72;5.07;;;;;;;26.95;47.18;97815.41;4125723;28;20229;-62
2022/06/19 06:09:27;;;;;;;9.18;3.92;;;;;;;27.01;47.22;97822.34;4137941;28;20263;-60
2022/06/19 06:11:29;;;;;;;4.25;3.80;;;;;;;27.15;47.40;97814.22;4124714;28;20567;-60
2022/06/19 06:13:31;;;;;;;8.48;4.32;;;;;;;27.20;46.66;97825.13;4121846;28;20210;-60
2022/06/19 06:15:33;;;;;;;5.65;3.05;;;;;;;27.28;46.34;97824.06;4139912;28;20228;-60
2022/06/19 06:17:36;;;;;;;11.50;3.08;;;;;;;27.41;45.97;97819.88;4109029;28;20281;-60
2022/06/19 06:19:37;;;;;;;12.13;3.97;;;;;;;27.39;45.42;97813.00;4139004;28;20240;-60
2022/06/19 06:21:39;;;;;;;7.32;4.53;;;;;;;27.48;45.41;97822.81;4118470;28;20209;-60
2022/06/19 06:23:42;;;;;;;5.82;4.00;;;;;;;27.61;45.54;97818.59;4123910;28;20213;-60
2022/06/19 06:25:44;;;;;;;5.63;3.88;;;;;;;27.66;45.30;97821.06;4120734;28;20210;-60
2022/06/19 06:27:49;;;;;;;4.18;3.60;;;;;;;27.71;45.61;97809.50;4117703;28;20233;-60
2022/06/19 06:29:50;;;;;;;5.25;3.22;;;;;;;27.82;45.29;97813.31;4122695;28;20214;-61
2022/06/19 06:31:53;;;;;;;6.88;3.58;;;;;;;27.91;45.72;97813.84;4124768;28;20610;-61
2022/06/19 06:33:55;;;;;;;6.20;3.72;;;;;;;28.07;45.07;97811.69;4106804;28;20247;-62
2022/06/19 06:35:57;;;;;;;6.63;3.70;;;;;;;28.19;45.50;97819.88;4123523;28;20281;-61
2022/06/19 06:37:59;;;;;;;6.82;3.88;;;;;;;28.21;44.54;97816.69;4118231;28;20198;-61
2022/06/19 06:40:03;;;;;;;5.78;2.75;;;;;;;28.13;44.74;97821.38;4123911;28;20213;-61
2022/06/19 06:42:05;;;;;;;3.40;3.10;;;;;;;28.18;44.70;97818.25;4137213;28;20206;-62
2022/06/19 06:44:12;;;;;;;14.10;3.70;;;;;;;28.16;44.09;97820.66;4136136;28;20217;-61
2022/06/19 06:46:18;;;;;;;10.80;3.05;;;;;;;27.95;44.18;97825.97;4138867;28;20368;-62
2022/06/19 06:48:20;;;;;;;5.28;3.17;;;;;;;28.16;44.88;97826.28;4137489;28;20649;-61
2022/06/19 06:50:22;;;;;;;5.88;3.88;;;;;;;28.30;44.36;97832.09;4137267;28;20249;-62
2022/06/19 06:52:26;;;;;;;5.88;3.80;;;;;;;28.28;43.89;97828.84;4141474;28;20212;-61
2022/06/19 06:54:28;;;;;;;3.95;3.50;;;;;;;28.25;43.43;97821.16;4135547;28;20236;-61
2022/06/19 06:56:34;;;;;;;4.35;3.35;;;;;;;28.35;43.89;97825.31;4123492;28;20210;-61
2022/06/19 06:58:38;;;;;;;6.57;3.47;;;;;;;28.46;43.60;97824.28;4120228;28;20575;-61
2022/06/19 07:00:40;;;;;;;3.75;3.13;;;;;;;28.48;43.79;97826.72;4125709;28;20209;-61
2022/06/19 07:02:42;;;;;;;4.28;2.75;;;;;;;28.66;43.44;97828.53;4139505;28;20740;-62
2022/06/19 07:04:43;;;;;;;7.57;3.92;;;;;;;28.69;43.00;97833.41;4138724;28;20237;-59
2022/06/19 07:06:45;;;;;;;7.75;3.80;;;;;;;28.67;42.99;97830.19;4139475;28;20209;-61
2022/06/19 07:08:47;;;;;;;4.07;3.05;;;;;;;28.76;43.42;97827.03;4118453;28;20225;-61
2022/06/19 07:10:49;;;;;;;4.30;3.17;;;;;;;28.73;43.13;97831.44;4140614;28;20613;-60
2022/06/19 07:12:50;;;;;;;5.03;3.17;;;;;;;28.86;43.13;97829.97;4121704;28;20217;-62
2022/06/19 07:14:52;;;;;;;5.28;3.50;;;;;;;28.70;42.86;97834.22;4121353;28;20291;-61
2022/06/19 07:16:54;;;;;;;6.78;4.25;;;;;;;28.62;43.01;97836.16;4125535;28;20236;-60
2022/06/19 07:18:55;;;;;;;10.90;3.97;;;;;;;28.68;43.05;97834.63;4140161;28;20210;-62
2022/06/19 07:20:57;;;;;;;4.07;3.78;;;;;;;28.90;42.97;97836.47;4120851;28;20268;-62
2022/06/19 07:22:59;;;;;;;6.22;3.70;;;;;;;29.02;43.76;97835.41;4139774;28;20259;-61
2022/06/19 07:25:02;;;;;;;6.32;3.15;;;;;;;29.10;42.84;97826.66;4123070;28;20241;-60
2022/06/19 07:27:04;;;;;;;3.97;3.55;;;;;;;29.13;43.08;97831.50;4120945;28;20217;-60
2022/06/19 07:29:07;;;;;;;7.63;4.40;;;;;;;28.98;43.12;97837.41;4121134;28;20778;-60
2022/06/19 07:31:10;;;;;;;12.52;3.13;;;;;;;29.16;43.16;97844.84;4118906;28;20209;-60
2022/06/19 07:33:12;;;;;;;8.50;3.47;;;;;;;29.35;42.95;97838.97;4130909;28;20268;-59
2022/06/19 07:35:14;;;;;;;3.80;3.50;;;;;;;29.35;42.39;97833.34;4134659;28;20233;-60
2022/06/19 07:37:16;;;;;;;6.90;3.92;;;;;;;29.28;42.87;97829.63;4138708;28;20212;-60
2022/06/19 07:39:19;;;;;;;2.83;2.63;;;;;;;29.49;42.65;97822.19;4137063;28;20200;-60
2022/06/19 07:41:21;;;;;;;6.60;3.35;;;;;;;29.38;42.11;97824.09;4122288;28;20233;-60
2022/06/19 07:43:23;;;;;;;7.38;3.80;;;;;;;29.58;42.22;97833.19;4137864;28;20212;-60
2022/06/19 07:45:24;;;;;;;4.43;3.45;;;;;;;29.71;41.95;97834.50;4116917;28;20228;-61
2022/06/19 07:52:07;;;;;;;4.07;3.15;;;;;;;29.57;41.56;97840.81;4136115;28;20205;-62
2022/06/19 07:54:08;;;;;;;12.35;4.25;;;;;;;29.49;41.79;97833.47;4120434;28;20577;-59
2022/06/19 07:56:10;;;;;;;6.10;4.28;;;;;;;29.72;42.53;97831.25;4138880;28;20241;-60
2022/06/19 07:58:12;;;;;;;3.78;3.53;;;;;;;29.93;42.34;97836.25;4122605;28;20305;-59
2022/06/19 08:00:18;;;;;;;5.35;3.70;;;;;;;29.91;42.12;97828.16;4119191;28;20276;-60
2022/06/19 08:02:20;;;;;;;7.55;3.00;;;;;;;30.11;42.40;97835.19;4137773;28;20721;-60
2022/06/19 08:04:23;;;;;;;11.23;4.05;;;;;;;30.23;41.66;97828.38;4137804;28;20232;-60
2022/06/19 08:06:25;;;;;;;4.55;3.53;;;;;;;30.05;41.80;97825.44;4137435;28;20620;-60
2022/06/19 08:08:29;;;;;;;8.27;3.55;;;;;;;30.11;41.85;97831.56;4127245;28;20268;-60
2022/06/19 08:10:33;;;;;;;13.45;3.83;;;;;;;30.17;41.60;97830.00;4125190;28;20726;-60
2022/06/19 08:12:35;;;;;;;20.35;3.72;;;;;;;29.98;41.71;97833.06;4125519;28;20252;-60
2022/06/19 08:14:37;;;;;;;7.95;3.47;;;;;;;30.29;42.50;97833.28;4138783;28;20225;-59
2022/06/19 08:16:39;;;;;;;6.15;3.45;;;;;;;30.41;41.11;97830.13;4121820;28;20724;-61
2022/06/19 08:18:41;;;;;;;4.57;3.10;;;;;;;30.37;41.15;97846.22;4124268;28;20210;-60
2022/06/19 08:20:43;;;;;;;4.15;3.75;;;;;;;30.45;40.73;97842.22;4124352;28;20244;-60
2022/06/19 08:22:44;;;;;;;7.78;3.50;;;;;;;30.49;40.74;97848.72;4127557;28;20718;-60
2022/06/19 08:24:46;;;;;;;4.55;3.40;;;;;;;30.31;40.36;97856.28;4127257;28;20225;-60
2022/06/19 08:27:06;;;;;;;10.02;4.50;;;;;;;30.46;41.15;97863.63;4127826;28;20260;-60
2022/06/19 08:29:08;;;;;;;6.97;4.72;;;;;;;30.33;40.65;97856.72;4132192;28;20310;-60
2022/06/19 08:31:10;;;;;;;7.68;3.10;;;;;;;30.41;40.46;97851.91;4130883;28;20622;-60
2022/06/19 08:33:12;;;;;;;7.18;3.45;;;;;;;30.07;40.71;97853.28;4126825;28;20259;-60
2022/06/19 08:35:13;;;;;;;11.50;3.75;;;;;;;30.45;40.56;97856.34;4134114;28;20229;-59
2022/06/19 08:37:15;;;;;;;4.60;3.67;;;;;;;30.36;40.79;97840.97;4118628;28;20297;-59
2022/06/19 08:39:19;;;;;;;6.25;4.45;;;;;;;30.67;40.69;97844.00;4138453;28;20205;-60
2022/06/19 08:41:51;;;;;;;11.75;3.58;;;;;;;30.94;40.99;97839.63;4119490;28;20300;-60
2022/06/19 08:44:14;;;;;;;3.53;3.22;;;;;;;30.66;40.53;97845.16;4117086;28;20874;-60
2022/06/19 08:46:25;;;;;;;5.40;3.75;;;;;;;30.66;40.18;97848.00;4119321;28;20249;-59
2022/06/19 08:48:48;;;;;;;8.88;4.38;;;;;;;30.61;40.59;97844.72;4117297;28;20304;-60
2022/06/19 08:50:59;;;;;;;5.22;3.67;;;;;;;31.05;40.29;97837.63;4118364;28;20244;-60
2022/06/19 08:53:53;;;;;;;13.05;3.88;;;;;;;31.16;41.21;97854.63;4135701;28;20208;-60
2022/06/19 08:56:08;;;;;;;6.75;3.20;;;;;;;31.37;40.16;97866.81;4117297;28;20211;-60
2022/06/19 08:58:16;;;;;;;10.95;3.50;;;;;;;31.59;39.97;97859.97;4115478;28;20273;-60
2022/06/19 09:00:23;;;;;;;5.80;3.78;;;;;;;31.84;39.19;97860.81;4119631;28;20698;-61
2022/06/19 09:02:24;;;;;;;6.30;4.65;;;;;;;31.64;39.24;97856.75;4120802;28;20212;-59
2022/06/19 09:07:17;;;;;;;11.60;4.43;;;;;;;32.07;39.36;97855.53;4136523;28;20222;-60
2022/06/19 09:09:52;;;;;;;3.67;3.38;;;;;;;31.96;39.28;97866.06;4118528;28;20277;-59
2022/06/19 09:12:30;;;;;;;7.28;3.40;;;;;;;32.20;39.52;97876.56;4087135;28;21207;-59
2022/06/19 09:14:36;;;;;;;5.07;3.53;;;;;;;32.48;38.95;97876.53;4094603;28;20239;-61
2022/06/19 09:16:46;;;;;;;5.30;3.47;;;;;;;32.47;38.67;97875.72;4135732;28;20207;-59
2022/06/19 09:19:00;;;;;;;5.00;2.97;;;;;;;32.48;38.73;97876.53;4135931;28;20263;-60
2022/06/19 09:21:10;;;;;;;4.97;4.10;;;;;;;32.42;38.90;97883.81;4114867;28;20203;-59
2022/06/19 09:23:30;;;;;;;13.50;5.25;;;;;;;32.74;39.39;97876.84;4134361;28;20209;-60
2022/06/19 09:25:50;;;;;;;9.40;3.67;;;;;;;32.77;37.89;97889.41;4132600;28;20592;-60
2022/06/19 09:28:18;;;;;;;7.90;4.35;;;;;;;32.94;37.94;97885.72;4117864;28;20198;-60
2022/06/19 09:30:32;;;;;;;6.10;3.50;;;;;;;33.12;37.38;97890.06;4120500;28;20233;-60
2022/06/19 09:32:44;;;;;;;6.13;3.60;;;;;;;32.96;37.76;97895.44;4134249;28;20204;-60
2022/06/19 09:35:09;;;;;;;13.50;3.58;;;;;;;32.64;37.99;97891.03;4122459;28;20723;-60
2022/06/19 09:37:35;;;;;;;28.52;4.47;;;;;;;32.71;37.67;97897.50;4120796;28;20216;-60
2022/06/19 09:39:47;;;;;;;8.77;3.72;;;;;;;32.90;38.20;97887.75;4118875;28;20213;-60
2022/06/19 09:42:04;;;;;;;13.25;3.65;;;;;;;33.12;37.94;97883.56;4121162;28;20209;-60
2022/06/19 09:44:44;;;;;;;4.47;3.22;;;;;;;32.89;38.57;97880.47;4135748;28;20833;-60
2022/06/19 09:46:55;;;;;;;7.15;4.97;;;;;;;33.19;36.64;97872.22;4137510;28;20205;-59
2022/06/19 09:49:06;;;;;;;4.88;3.83;;;;;;;33.25;36.55;97871.38;4120234;28;20661;-60
2022/06/19 09:51:30;;;;;;;11.00;3.95;;;;;;;33.25;36.72;97879.91;4124858;28;20641;-60
2022/06/19 09:53:40;;;;;;;10.60;3.70;;;;;;;33.40;36.86;97883.47;4118081;28;21989;-60